sensor_id;sensor_type;location;lat;lon;timestamp;P1;durP1;ratioP1;P2;durP2;ratioP2
13331;SDS011;6735;51.456;12.626;2023-04-25T00:01:59;6.27;;;5.67;;
13331;SDS011;6735;51.456;12.626;2023-04-25T00:04:24;6.27;;;5.67;;
13331;SDS011;6735;51.456;12.626;2023-04-25T00:06:52;7.83;;;6.27;;
13331;SDS011;6735;51.456;12.626;2023-04-25T00:09:19;6.20;;;5.60;;
13331;SDS011;6735;51.456;12.626;2023-04-25T00:11:44;6.27;;;5.70;;
13331;SDS011;6735;51.456;12.626;2023-04-25T00:14:10;6.40;;;5.80;;
13331;SDS011;6735;51.456;12.626;2023-04-25T00:16:35;7.10;;;5.57;;
13331;SDS011;6735;51.456;12.626;2023-04-25T00:19:01;6.57;;;5.93;;
13331;SDS011;6735;51.456;12.626;2023-04-25T00:21:27;7.00;;;6.30;;
13331;SDS011;6735;51.456;12.626;2023-04-25T00:23:53;6.60;;;6.07;;
13331;SDS011;6735;51.456;12.626;2023-04-25T00:26:20;6.77;;;6.17;;
13331;SDS011;6735;51.456;12.626;2023-04-25T00:28:48;6.70;;;5.93;;
13331;SDS011;6735;51.456;12.626;2023-04-25T00:31:13;6.57;;;5.73;;
13331;SDS011;6735;51.456;12.626;2023-04-25T00:33:39;6.37;;;5.37;;
13331;SDS011;6735;51.456;12.626;2023-04-25T00:36:05;6.40;;;5.80;;
13331;SDS011;6735;51.456;12.626;2023-04-25T00:38:31;6.37;;;5.77;;
13331;SDS011;6735;51.456;12.626;2023-04-25T00:40:56;8.17;;;6.20;;
13331;SDS011;6735;51.456;12.626;2023-04-25T00:43:22;7.53;;;6.83;;
13331;SDS011;6735;51.456;12.626;2023-04-25T00:45:50;7.23;;;6.20;;
13331;SDS011;6735;51.456;12.626;2023-04-25T00:48:18;7.83;;;6.73;;
13331;SDS011;6735;51.456;12.626;2023-04-25T00:50:49;7.57;;;6.87;;
13331;SDS011;6735;51.456;12.626;2023-04-25T00:53:21;7.30;;;6.60;;
13331;SDS011;6735;51.456;12.626;2023-04-25T00:55:47;8.07;;;7.37;;
13331;SDS011;6735;51.456;12.626;2023-04-25T00:58:15;9.10;;;8.20;;
13331;SDS011;6735;51.456;12.626;2023-04-25T01:00:41;9.20;;;7.60;;
13331;SDS011;6735;51.456;12.626;2023-04-25T01:03:07;10.47;;;7.33;;
13331;SDS011;6735;51.456;12.626;2023-04-25T01:05:32;9.37;;;8.37;;
13331;SDS011;6735;51.456;12.626;2023-04-25T01:07:58;9.70;;;8.13;;
13331;SDS011;6735;51.456;12.626;2023-04-25T01:10:24;9.53;;;7.53;;
13331;SDS011;6735;51.456;12.626;2023-04-25T01:12:49;9.10;;;7.67;;
13331;SDS011;6735;51.456;12.626;2023-04-25T01:15:15;8.77;;;7.97;;
13331;SDS011;6735;51.456;12.626;2023-04-25T01:17:41;8.50;;;7.60;;
13331;SDS011;6735;51.456;12.626;2023-04-25T01:20:07;9.43;;;8.53;;
13331;SDS011;6735;51.456;12.626;2023-04-25T01:22:34;8.77;;;7.87;;
13331;SDS011;6735;51.456;12.626;2023-04-25T01:25:00;10.10;;;8.00;;
13331;SDS011;6735;51.456;12.626;2023-04-25T01:27:25;9.47;;;8.03;;
13331;SDS011;6735;51.456;12.626;2023-04-25T01:29:51;9.47;;;7.77;;
13331;SDS011;6735;51.456;12.626;2023-04-25T01:32:18;9.73;;;8.13;;
13331;SDS011;6735;51.456;12.626;2023-04-25T01:34:44;8.30;;;7.50;;
13331;SDS011;6735;51.456;12.626;2023-04-25T01:37:09;9.70;;;8.03;;
13331;SDS011;6735;51.456;12.626;2023-04-25T01:39:35;9.63;;;8.47;;
13331;SDS011;6735;51.456;12.626;2023-04-25T01:42:01;9.00;;;7.80;;
13331;SDS011;6735;51.456;12.626;2023-04-25T01:44:26;8.53;;;7.57;;
13331;SDS011;6735;51.456;12.626;2023-04-25T01:46:52;8.93;;;7.80;;
13331;SDS011;6735;51.456;12.626;2023-04-25T01:49:18;9.23;;;8.23;;
13331;SDS011;6735;51.456;12.626;2023-04-25T01:51:44;8.67;;;7.87;;
13331;SDS011;6735;51.456;12.626;2023-04-25T01:54:10;9.00;;;7.97;;
13331;SDS011;6735;51.456;12.626;2023-04-25T01:56:36;9.67;;;8.20;;
13331;SDS011;6735;51.456;12.626;2023-04-25T01:59:03;9.70;;;7.90;;
13331;SDS011;6735;51.456;12.626;2023-04-25T02:01:29;9.43;;;7.73;;
13331;SDS011;6735;51.456;12.626;2023-04-25T02:03:54;8.90;;;7.97;;
13331;SDS011;6735;51.456;12.626;2023-04-25T02:06:20;8.70;;;7.87;;
13331;SDS011;6735;51.456;12.626;2023-04-25T02:08:45;10.30;;;8.30;;
13331;SDS011;6735;51.456;12.626;2023-04-25T02:11:11;9.47;;;8.07;;
13331;SDS011;6735;51.456;12.626;2023-04-25T02:13:36;9.23;;;8.00;;
13331;SDS011;6735;51.456;12.626;2023-04-25T02:16:02;10.10;;;7.83;;
13331;SDS011;6735;51.456;12.626;2023-04-25T02:18:28;8.43;;;7.57;;
13331;SDS011;6735;51.456;12.626;2023-04-25T02:20:53;10.43;;;7.83;;
13331;SDS011;6735;51.456;12.626;2023-04-25T02:23:19;8.43;;;7.53;;
13331;SDS011;6735;51.456;12.626;2023-04-25T02:25:44;8.67;;;7.77;;
13331;SDS011;6735;51.456;12.626;2023-04-25T02:28:10;9.57;;;7.90;;
13331;SDS011;6735;51.456;12.626;2023-04-25T02:30:36;9.60;;;7.57;;
13331;SDS011;6735;51.456;12.626;2023-04-25T02:33:01;8.90;;;8.00;;
13331;SDS011;6735;51.456;12.626;2023-04-25T02:35:27;8.20;;;7.33;;
13331;SDS011;6735;51.456;12.626;2023-04-25T02:37:52;8.23;;;7.17;;
13331;SDS011;6735;51.456;12.626;2023-04-25T02:40:19;8.53;;;7.27;;
13331;SDS011;6735;51.456;12.626;2023-04-25T02:42:44;9.60;;;6.83;;
13331;SDS011;6735;51.456;12.626;2023-04-25T02:45:13;10.37;;;7.03;;
13331;SDS011;6735;51.456;12.626;2023-04-25T02:47:38;9.70;;;6.90;;
13331;SDS011;6735;51.456;12.626;2023-04-25T02:50:04;7.20;;;6.50;;
13331;SDS011;6735;51.456;12.626;2023-04-25T02:52:30;11.83;;;6.83;;
13331;SDS011;6735;51.456;12.626;2023-04-25T02:54:55;9.70;;;7.03;;
13331;SDS011;6735;51.456;12.626;2023-04-25T02:57:21;10.53;;;6.97;;
13331;SDS011;6735;51.456;12.626;2023-04-25T02:59:46;9.27;;;7.07;;
13331;SDS011;6735;51.456;12.626;2023-04-25T03:02:12;7.23;;;6.40;;
13331;SDS011;6735;51.456;12.626;2023-04-25T03:04:37;11.93;;;6.47;;
13331;SDS011;6735;51.456;12.626;2023-04-25T03:07:03;8.53;;;6.40;;
13331;SDS011;6735;51.456;12.626;2023-04-25T03:09:29;9.37;;;6.70;;
13331;SDS011;6735;51.456;12.626;2023-04-25T03:11:54;9.97;;;6.67;;
13331;SDS011;6735;51.456;12.626;2023-04-25T03:14:20;9.70;;;6.37;;
13331;SDS011;6735;51.456;12.626;2023-04-25T03:16:45;9.37;;;7.00;;
13331;SDS011;6735;51.456;12.626;2023-04-25T03:19:11;7.33;;;6.53;;
13331;SDS011;6735;51.456;12.626;2023-04-25T03:21:36;7.80;;;6.33;;
13331;SDS011;6735;51.456;12.626;2023-04-25T03:24:03;8.10;;;6.20;;
13331;SDS011;6735;51.456;12.626;2023-04-25T03:26:29;8.77;;;6.77;;
13331;SDS011;6735;51.456;12.626;2023-04-25T03:28:55;8.70;;;6.57;;
13331;SDS011;6735;51.456;12.626;2023-04-25T03:31:20;8.40;;;6.87;;
13331;SDS011;6735;51.456;12.626;2023-04-25T03:33:47;8.23;;;6.47;;
13331;SDS011;6735;51.456;12.626;2023-04-25T03:36:12;8.50;;;6.43;;
13331;SDS011;6735;51.456;12.626;2023-04-25T03:38:38;8.17;;;6.87;;
13331;SDS011;6735;51.456;12.626;2023-04-25T03:41:03;8.27;;;6.97;;
13331;SDS011;6735;51.456;12.626;2023-04-25T03:43:29;9.87;;;6.50;;
13331;SDS011;6735;51.456;12.626;2023-04-25T03:45:54;7.40;;;6.57;;
13331;SDS011;6735;51.456;12.626;2023-04-25T03:48:20;7.97;;;6.80;;
13331;SDS011;6735;51.456;12.626;2023-04-25T03:50:50;9.07;;;7.43;;
13331;SDS011;6735;51.456;12.626;2023-04-25T03:53:16;10.57;;;7.27;;
13331;SDS011;6735;51.456;12.626;2023-04-25T03:55:42;9.13;;;6.80;;
13331;SDS011;6735;51.456;12.626;2023-04-25T03:58:07;8.33;;;7.47;;
13331;SDS011;6735;51.456;12.626;2023-04-25T04:00:33;7.60;;;6.80;;
13331;SDS011;6735;51.456;12.626;2023-04-25T04:02:59;9.30;;;7.17;;
13331;SDS011;6735;51.456;12.626;2023-04-25T04:05:25;9.93;;;6.67;;
13331;SDS011;6735;51.456;12.626;2023-04-25T04:07:51;8.00;;;7.20;;
13331;SDS011;6735;51.456;12.626;2023-04-25T04:10:16;9.13;;;7.17;;
13331;SDS011;6735;51.456;12.626;2023-04-25T04:12:42;9.00;;;7.63;;
13331;SDS011;6735;51.456;12.626;2023-04-25T04:15:07;7.80;;;7.00;;
13331;SDS011;6735;51.456;12.626;2023-04-25T04:17:33;14.80;;;7.50;;
13331;SDS011;6735;51.456;12.626;2023-04-25T04:19:59;12.13;;;7.70;;
13331;SDS011;6735;51.456;12.626;2023-04-25T04:22:24;10.47;;;7.60;;
13331;SDS011;6735;51.456;12.626;2023-04-25T04:24:50;9.43;;;7.60;;
13331;SDS011;6735;51.456;12.626;2023-04-25T04:27:19;11.00;;;7.53;;
13331;SDS011;6735;51.456;12.626;2023-04-25T04:29:45;12.07;;;7.90;;
13331;SDS011;6735;51.456;12.626;2023-04-25T04:32:11;9.83;;;7.27;;
13331;SDS011;6735;51.456;12.626;2023-04-25T04:34:38;10.67;;;7.70;;
13331;SDS011;6735;51.456;12.626;2023-04-25T04:37:04;9.03;;;7.57;;
13331;SDS011;6735;51.456;12.626;2023-04-25T04:39:30;9.83;;;7.70;;
13331;SDS011;6735;51.456;12.626;2023-04-25T04:41:56;13.20;;;7.37;;
13331;SDS011;6735;51.456;12.626;2023-04-25T04:44:21;11.00;;;6.93;;
13331;SDS011;6735;51.456;12.626;2023-04-25T04:46:47;8.33;;;6.93;;
13331;SDS011;6735;51.456;12.626;2023-04-25T04:49:13;10.67;;;7.50;;
13331;SDS011;6735;51.456;12.626;2023-04-25T04:51:39;10.83;;;6.87;;
13331;SDS011;6735;51.456;12.626;2023-04-25T04:54:06;10.40;;;7.17;;
13331;SDS011;6735;51.456;12.626;2023-04-25T04:56:31;11.67;;;6.97;;
13331;SDS011;6735;51.456;12.626;2023-04-25T04:58:57;12.07;;;6.80;;
13331;SDS011;6735;51.456;12.626;2023-04-25T05:01:23;11.27;;;6.90;;
13331;SDS011;6735;51.456;12.626;2023-04-25T05:03:49;12.63;;;7.47;;
13331;SDS011;6735;51.456;12.626;2023-04-25T05:06:14;15.07;;;6.93;;
13331;SDS011;6735;51.456;12.626;2023-04-25T05:08:41;9.60;;;7.40;;
13331;SDS011;6735;51.456;12.626;2023-04-25T05:11:06;10.53;;;7.27;;
13331;SDS011;6735;51.456;12.626;2023-04-25T05:13:32;15.67;;;7.20;;
13331;SDS011;6735;51.456;12.626;2023-04-25T05:15:57;13.63;;;7.43;;
13331;SDS011;6735;51.456;12.626;2023-04-25T05:18:23;16.23;;;7.37;;
13331;SDS011;6735;51.456;12.626;2023-04-25T05:20:48;13.47;;;7.70;;
13331;SDS011;6735;51.456;12.626;2023-04-25T05:23:14;9.13;;;6.47;;
13331;SDS011;6735;51.456;12.626;2023-04-25T05:25:40;10.47;;;6.97;;
13331;SDS011;6735;51.456;12.626;2023-04-25T05:28:05;12.63;;;7.20;;
13331;SDS011;6735;51.456;12.626;2023-04-25T05:30:31;13.33;;;6.80;;
13331;SDS011;6735;51.456;12.626;2023-04-25T05:32:56;12.83;;;7.10;;
13331;SDS011;6735;51.456;12.626;2023-04-25T05:35:22;8.10;;;6.90;;
13331;SDS011;6735;51.456;12.626;2023-04-25T05:37:47;10.53;;;6.40;;
13331;SDS011;6735;51.456;12.626;2023-04-25T05:40:13;8.83;;;6.80;;
13331;SDS011;6735;51.456;12.626;2023-04-25T05:42:38;13.93;;;6.80;;
13331;SDS011;6735;51.456;12.626;2023-04-25T05:45:04;10.53;;;6.40;;
13331;SDS011;6735;51.456;12.626;2023-04-25T05:47:30;9.33;;;6.77;;
13331;SDS011;6735;51.456;12.626;2023-04-25T05:49:55;9.87;;;6.73;;
13331;SDS011;6735;51.456;12.626;2023-04-25T05:52:21;11.40;;;7.40;;
13331;SDS011;6735;51.456;12.626;2023-04-25T05:54:46;12.57;;;7.90;;
13331;SDS011;6735;51.456;12.626;2023-04-25T05:57:19;13.53;;;8.10;;
13331;SDS011;6735;51.456;12.626;2023-04-25T05:59:49;14.17;;;7.80;;
13331;SDS011;6735;51.456;12.626;2023-04-25T06:02:14;13.63;;;8.30;;
13331;SDS011;6735;51.456;12.626;2023-04-25T06:04:40;15.17;;;8.47;;
13331;SDS011;6735;51.456;12.626;2023-04-25T06:07:05;14.23;;;8.33;;
13331;SDS011;6735;51.456;12.626;2023-04-25T06:09:31;10.60;;;8.70;;
13331;SDS011;6735;51.456;12.626;2023-04-25T06:11:56;12.37;;;9.00;;
13331;SDS011;6735;51.456;12.626;2023-04-25T06:14:22;12.57;;;9.10;;
13331;SDS011;6735;51.456;12.626;2023-04-25T06:16:47;12.53;;;8.53;;
13331;SDS011;6735;51.456;12.626;2023-04-25T06:19:13;11.33;;;8.57;;
13331;SDS011;6735;51.456;12.626;2023-04-25T06:21:38;10.70;;;8.13;;
13331;SDS011;6735;51.456;12.626;2023-04-25T06:24:04;9.53;;;7.93;;
13331;SDS011;6735;51.456;12.626;2023-04-25T06:26:29;14.40;;;8.70;;
13331;SDS011;6735;51.456;12.626;2023-04-25T06:28:55;10.33;;;7.73;;
13331;SDS011;6735;51.456;12.626;2023-04-25T06:31:20;12.80;;;9.20;;
13331;SDS011;6735;51.456;12.626;2023-04-25T06:33:45;17.00;;;9.07;;
13331;SDS011;6735;51.456;12.626;2023-04-25T06:36:13;18.40;;;8.13;;
13331;SDS011;6735;51.456;12.626;2023-04-25T06:38:38;13.47;;;7.93;;
13331;SDS011;6735;51.456;12.626;2023-04-25T06:41:04;10.00;;;7.27;;
13331;SDS011;6735;51.456;12.626;2023-04-25T06:43:29;11.23;;;7.43;;
13331;SDS011;6735;51.456;12.626;2023-04-25T06:45:58;10.57;;;7.17;;
13331;SDS011;6735;51.456;12.626;2023-04-25T06:48:24;9.13;;;7.10;;
13331;SDS011;6735;51.456;12.626;2023-04-25T06:50:50;8.93;;;7.20;;
13331;SDS011;6735;51.456;12.626;2023-04-25T06:53:15;8.97;;;6.47;;
13331;SDS011;6735;51.456;12.626;2023-04-25T06:55:41;9.63;;;6.50;;
13331;SDS011;6735;51.456;12.626;2023-04-25T06:58:06;9.73;;;7.20;;
13331;SDS011;6735;51.456;12.626;2023-04-25T07:00:32;10.03;;;7.07;;
13331;SDS011;6735;51.456;12.626;2023-04-25T07:02:58;8.87;;;6.67;;
13331;SDS011;6735;51.456;12.626;2023-04-25T07:05:24;8.83;;;6.20;;
13331;SDS011;6735;51.456;12.626;2023-04-25T07:07:49;7.40;;;6.47;;
13331;SDS011;6735;51.456;12.626;2023-04-25T07:10:14;9.90;;;6.50;;
13331;SDS011;6735;51.456;12.626;2023-04-25T07:12:40;8.77;;;6.40;;
13331;SDS011;6735;51.456;12.626;2023-04-25T07:15:06;9.20;;;6.90;;
13331;SDS011;6735;51.456;12.626;2023-04-25T07:17:33;10.23;;;7.00;;
13331;SDS011;6735;51.456;12.626;2023-04-25T07:19:58;9.73;;;6.60;;
13331;SDS011;6735;51.456;12.626;2023-04-25T07:22:24;8.30;;;5.53;;
13331;SDS011;6735;51.456;12.626;2023-04-25T07:24:51;10.13;;;6.30;;
13331;SDS011;6735;51.456;12.626;2023-04-25T07:27:18;11.17;;;6.13;;
13331;SDS011;6735;51.456;12.626;2023-04-25T07:29:43;7.03;;;5.63;;
13331;SDS011;6735;51.456;12.626;2023-04-25T07:32:09;11.23;;;6.20;;
13331;SDS011;6735;51.456;12.626;2023-04-25T07:34:37;9.07;;;5.77;;
13331;SDS011;6735;51.456;12.626;2023-04-25T07:37:03;7.03;;;5.70;;
13331;SDS011;6735;51.456;12.626;2023-04-25T07:39:29;7.97;;;5.90;;
13331;SDS011;6735;51.456;12.626;2023-04-25T07:41:55;8.77;;;6.27;;
13331;SDS011;6735;51.456;12.626;2023-04-25T07:44:22;8.23;;;5.83;;
13331;SDS011;6735;51.456;12.626;2023-04-25T07:46:47;8.27;;;5.90;;
13331;SDS011;6735;51.456;12.626;2023-04-25T07:49:12;9.40;;;5.90;;
13331;SDS011;6735;51.456;12.626;2023-04-25T07:51:38;7.23;;;6.00;;
13331;SDS011;6735;51.456;12.626;2023-04-25T07:54:03;8.50;;;6.23;;
13331;SDS011;6735;51.456;12.626;2023-04-25T07:56:30;7.60;;;6.03;;
13331;SDS011;6735;51.456;12.626;2023-04-25T07:58:55;6.57;;;5.70;;
13331;SDS011;6735;51.456;12.626;2023-04-25T08:01:21;8.70;;;5.40;;
13331;SDS011;6735;51.456;12.626;2023-04-25T08:03:47;5.87;;;5.33;;
13331;SDS011;6735;51.456;12.626;2023-04-25T08:06:12;8.47;;;5.40;;
13331;SDS011;6735;51.456;12.626;2023-04-25T08:08:37;8.00;;;5.07;;
13331;SDS011;6735;51.456;12.626;2023-04-25T08:11:03;6.73;;;4.77;;
13331;SDS011;6735;51.456;12.626;2023-04-25T08:13:28;6.00;;;4.70;;
13331;SDS011;6735;51.456;12.626;2023-04-25T08:15:54;8.97;;;5.13;;
13331;SDS011;6735;51.456;12.626;2023-04-25T08:18:19;7.13;;;5.80;;
13331;SDS011;6735;51.456;12.626;2023-04-25T08:20:45;6.00;;;4.90;;
13331;SDS011;6735;51.456;12.626;2023-04-25T08:23:10;10.67;;;4.90;;
13331;SDS011;6735;51.456;12.626;2023-04-25T08:25:36;8.00;;;4.87;;
13331;SDS011;6735;51.456;12.626;2023-04-25T08:28:01;7.50;;;4.80;;
13331;SDS011;6735;51.456;12.626;2023-04-25T08:30:28;8.93;;;4.90;;
13331;SDS011;6735;51.456;12.626;2023-04-25T08:32:53;7.33;;;4.30;;
13331;SDS011;6735;51.456;12.626;2023-04-25T08:35:19;10.00;;;4.53;;
13331;SDS011;6735;51.456;12.626;2023-04-25T08:37:45;8.43;;;4.87;;
13331;SDS011;6735;51.456;12.626;2023-04-25T08:40:11;8.67;;;5.10;;
13331;SDS011;6735;51.456;12.626;2023-04-25T08:42:40;10.27;;;5.70;;
13331;SDS011;6735;51.456;12.626;2023-04-25T08:45:07;9.33;;;5.03;;
13331;SDS011;6735;51.456;12.626;2023-04-25T08:47:33;9.83;;;5.50;;
13331;SDS011;6735;51.456;12.626;2023-04-25T08:49:59;9.47;;;5.60;;
13331;SDS011;6735;51.456;12.626;2023-04-25T08:52:27;9.70;;;5.83;;
13331;SDS011;6735;51.456;12.626;2023-04-25T08:54:57;10.67;;;6.20;;
13331;SDS011;6735;51.456;12.626;2023-04-25T08:57:23;12.00;;;5.70;;
13331;SDS011;6735;51.456;12.626;2023-04-25T08:59:49;11.47;;;5.27;;
13331;SDS011;6735;51.456;12.626;2023-04-25T09:02:17;9.20;;;4.83;;
13331;SDS011;6735;51.456;12.626;2023-04-25T09:04:45;10.23;;;5.00;;
13331;SDS011;6735;51.456;12.626;2023-04-25T09:07:11;9.00;;;5.00;;
13331;SDS011;6735;51.456;12.626;2023-04-25T09:09:36;9.90;;;4.50;;
13331;SDS011;6735;51.456;12.626;2023-04-25T09:12:02;6.87;;;4.30;;
13331;SDS011;6735;51.456;12.626;2023-04-25T09:14:28;6.13;;;4.13;;
13331;SDS011;6735;51.456;12.626;2023-04-25T09:19:22;11.60;;;4.23;;
13331;SDS011;6735;51.456;12.626;2023-04-25T09:21:56;8.20;;;3.77;;
13331;SDS011;6735;51.456;12.626;2023-04-25T09:27:09;6.50;;;3.60;;
13331;SDS011;6735;51.456;12.626;2023-04-25T09:29:40;8.53;;;3.40;;
13331;SDS011;6735;51.456;12.626;2023-04-25T09:32:14;7.60;;;3.53;;
13331;SDS011;6735;51.456;12.626;2023-04-25T09:37:21;9.23;;;3.53;;
13331;SDS011;6735;51.456;12.626;2023-04-25T09:39:53;9.70;;;3.47;;
13331;SDS011;6735;51.456;12.626;2023-04-25T09:42:23;9.80;;;3.63;;
13331;SDS011;6735;51.456;12.626;2023-04-25T09:44:54;11.77;;;3.73;;
13331;SDS011;6735;51.456;12.626;2023-04-25T09:47:20;6.87;;;3.77;;
13331;SDS011;6735;51.456;12.626;2023-04-25T09:49:49;9.40;;;4.60;;
13331;SDS011;6735;51.456;12.626;2023-04-25T09:52:17;12.07;;;4.40;;
13331;SDS011;6735;51.456;12.626;2023-04-25T09:54:45;11.00;;;4.10;;
13331;SDS011;6735;51.456;12.626;2023-04-25T09:59:39;9.27;;;4.23;;
13331;SDS011;6735;51.456;12.626;2023-04-25T10:02:09;11.67;;;4.33;;
13331;SDS011;6735;51.456;12.626;2023-04-25T10:04:35;9.13;;;4.43;;
13331;SDS011;6735;51.456;12.626;2023-04-25T10:07:03;15.30;;;4.40;;
13331;SDS011;6735;51.456;12.626;2023-04-25T10:09:30;11.67;;;4.33;;
13331;SDS011;6735;51.456;12.626;2023-04-25T10:11:58;14.63;;;4.97;;
13331;SDS011;6735;51.456;12.626;2023-04-25T10:14:25;12.57;;;4.93;;
13331;SDS011;6735;51.456;12.626;2023-04-25T10:16:51;14.53;;;4.73;;
13331;SDS011;6735;51.456;12.626;2023-04-25T10:19:18;14.90;;;5.33;;
13331;SDS011;6735;51.456;12.626;2023-04-25T10:21:49;11.10;;;4.93;;
13331;SDS011;6735;51.456;12.626;2023-04-25T10:24:17;14.60;;;5.10;;
13331;SDS011;6735;51.456;12.626;2023-04-25T10:26:44;14.87;;;5.00;;
13331;SDS011;6735;51.456;12.626;2023-04-25T10:29:11;12.27;;;4.73;;
13331;SDS011;6735;51.456;12.626;2023-04-25T10:31:46;12.40;;;5.57;;
13331;SDS011;6735;51.456;12.626;2023-04-25T10:34:12;14.63;;;5.10;;
13331;SDS011;6735;51.456;12.626;2023-04-25T10:36:38;14.00;;;5.33;;
13331;SDS011;6735;51.456;12.626;2023-04-25T10:39:05;12.33;;;5.60;;
13331;SDS011;6735;51.456;12.626;2023-04-25T10:41:47;15.23;;;6.37;;
13331;SDS011;6735;51.456;12.626;2023-04-25T10:44:27;15.40;;;5.73;;
13331;SDS011;6735;51.456;12.626;2023-04-25T10:46:57;11.83;;;5.13;;
13331;SDS011;6735;51.456;12.626;2023-04-25T10:49:31;13.37;;;5.70;;
13331;SDS011;6735;51.456;12.626;2023-04-25T10:52:10;13.77;;;5.93;;
13331;SDS011;6735;51.456;12.626;2023-04-25T10:54:41;16.73;;;6.23;;
13331;SDS011;6735;51.456;12.626;2023-04-25T10:57:26;14.90;;;5.70;;
13331;SDS011;6735;51.456;12.626;2023-04-25T11:05:23;16.97;;;5.77;;
13331;SDS011;6735;51.456;12.626;2023-04-25T11:07:59;12.90;;;6.00;;
13331;SDS011;6735;51.456;12.626;2023-04-25T11:10:25;11.97;;;6.30;;
13331;SDS011;6735;51.456;12.626;2023-04-25T11:12:51;14.60;;;6.60;;
13331;SDS011;6735;51.456;12.626;2023-04-25T11:15:17;14.67;;;7.33;;
13331;SDS011;6735;51.456;12.626;2023-04-25T11:17:42;15.07;;;6.97;;
13331;SDS011;6735;51.456;12.626;2023-04-25T11:20:11;12.67;;;5.87;;
13331;SDS011;6735;51.456;12.626;2023-04-25T11:22:37;12.07;;;5.50;;
13331;SDS011;6735;51.456;12.626;2023-04-25T11:25:05;13.00;;;5.93;;
13331;SDS011;6735;51.456;12.626;2023-04-25T11:27:32;12.87;;;6.00;;
13331;SDS011;6735;51.456;12.626;2023-04-25T11:29:57;13.13;;;5.67;;
13331;SDS011;6735;51.456;12.626;2023-04-25T11:32:23;14.13;;;5.40;;
13331;SDS011;6735;51.456;12.626;2023-04-25T11:34:48;12.73;;;5.13;;
13331;SDS011;6735;51.456;12.626;2023-04-25T11:37:14;12.70;;;5.20;;
13331;SDS011;6735;51.456;12.626;2023-04-25T11:39:44;12.30;;;4.77;;
13331;SDS011;6735;51.456;12.626;2023-04-25T11:42:11;8.23;;;5.00;;
13331;SDS011;6735;51.456;12.626;2023-04-25T11:44:37;12.53;;;5.23;;
13331;SDS011;6735;51.456;12.626;2023-04-25T11:47:04;13.77;;;5.00;;
13331;SDS011;6735;51.456;12.626;2023-04-25T11:49:30;10.53;;;5.27;;
13331;SDS011;6735;51.456;12.626;2023-04-25T11:51:57;13.17;;;5.20;;
13331;SDS011;6735;51.456;12.626;2023-04-25T11:54:22;13.07;;;5.53;;
13331;SDS011;6735;51.456;12.626;2023-04-25T11:56:48;9.53;;;5.20;;
13331;SDS011;6735;51.456;12.626;2023-04-25T11:59:13;12.70;;;5.10;;
13331;SDS011;6735;51.456;12.626;2023-04-25T12:01:47;9.90;;;5.50;;
13331;SDS011;6735;51.456;12.626;2023-04-25T12:04:15;17.60;;;6.23;;
13331;SDS011;6735;51.456;12.626;2023-04-25T12:06:45;14.63;;;6.07;;
13331;SDS011;6735;51.456;12.626;2023-04-25T12:09:12;12.83;;;5.90;;
13331;SDS011;6735;51.456;12.626;2023-04-25T12:11:44;7.83;;;4.60;;
13331;SDS011;6735;51.456;12.626;2023-04-25T12:14:11;10.33;;;4.77;;
13331;SDS011;6735;51.456;12.626;2023-04-25T12:16:45;12.33;;;4.03;;
13331;SDS011;6735;51.456;12.626;2023-04-25T12:19:17;13.83;;;5.03;;
13331;SDS011;6735;51.456;12.626;2023-04-25T12:21:45;10.87;;;4.73;;
13331;SDS011;6735;51.456;12.626;2023-04-25T12:24:24;8.93;;;4.30;;
13331;SDS011;6735;51.456;12.626;2023-04-25T12:27:02;10.37;;;4.90;;
13331;SDS011;6735;51.456;12.626;2023-04-25T12:29:30;11.17;;;4.47;;
13331;SDS011;6735;51.456;12.626;2023-04-25T12:31:59;8.50;;;4.87;;
13331;SDS011;6735;51.456;12.626;2023-04-25T12:34:26;6.97;;;4.00;;
13331;SDS011;6735;51.456;12.626;2023-04-25T12:36:52;9.13;;;3.93;;
13331;SDS011;6735;51.456;12.626;2023-04-25T12:39:18;9.90;;;3.80;;
13331;SDS011;6735;51.456;12.626;2023-04-25T12:41:48;9.03;;;3.80;;
13331;SDS011;6735;51.456;12.626;2023-04-25T12:44:14;8.70;;;3.30;;
13331;SDS011;6735;51.456;12.626;2023-04-25T12:46:40;6.43;;;3.20;;
13331;SDS011;6735;51.456;12.626;2023-04-25T12:49:06;9.37;;;3.37;;
13331;SDS011;6735;51.456;12.626;2023-04-25T12:51:33;10.07;;;3.23;;
13331;SDS011;6735;51.456;12.626;2023-04-25T12:54:00;6.53;;;2.90;;
13331;SDS011;6735;51.456;12.626;2023-04-25T12:56:26;7.93;;;2.70;;
13331;SDS011;6735;51.456;12.626;2023-04-25T12:58:52;6.83;;;2.73;;
13331;SDS011;6735;51.456;12.626;2023-04-25T13:01:18;6.30;;;2.83;;
13331;SDS011;6735;51.456;12.626;2023-04-25T13:03:44;7.80;;;3.30;;
13331;SDS011;6735;51.456;12.626;2023-04-25T13:06:10;9.03;;;3.10;;
13331;SDS011;6735;51.456;12.626;2023-04-25T13:08:35;6.57;;;3.00;;
13331;SDS011;6735;51.456;12.626;2023-04-25T13:11:03;5.13;;;2.60;;
13331;SDS011;6735;51.456;12.626;2023-04-25T13:13:28;6.10;;;3.00;;
13331;SDS011;6735;51.456;12.626;2023-04-25T13:15:54;6.13;;;2.80;;
13331;SDS011;6735;51.456;12.626;2023-04-25T13:18:20;5.87;;;3.03;;
13331;SDS011;6735;51.456;12.626;2023-04-25T13:20:45;8.00;;;3.00;;
13331;SDS011;6735;51.456;12.626;2023-04-25T13:23:11;6.40;;;2.80;;
13331;SDS011;6735;51.456;12.626;2023-04-25T13:25:37;5.93;;;2.70;;
13331;SDS011;6735;51.456;12.626;2023-04-25T13:28:02;4.90;;;2.87;;
13331;SDS011;6735;51.456;12.626;2023-04-25T13:30:28;4.07;;;3.00;;
13331;SDS011;6735;51.456;12.626;2023-04-25T13:32:53;6.57;;;2.90;;
13331;SDS011;6735;51.456;12.626;2023-04-25T13:35:21;6.87;;;3.27;;
13331;SDS011;6735;51.456;12.626;2023-04-25T13:37:47;6.00;;;2.70;;
13331;SDS011;6735;51.456;12.626;2023-04-25T13:40:12;7.63;;;3.07;;
13331;SDS011;6735;51.456;12.626;2023-04-25T13:42:38;5.97;;;2.80;;
13331;SDS011;6735;51.456;12.626;2023-04-25T13:45:05;6.17;;;3.10;;
13331;SDS011;6735;51.456;12.626;2023-04-25T13:47:31;7.37;;;3.10;;
13331;SDS011;6735;51.456;12.626;2023-04-25T13:49:56;7.07;;;3.13;;
13331;SDS011;6735;51.456;12.626;2023-04-25T13:52:22;6.83;;;3.00;;
13331;SDS011;6735;51.456;12.626;2023-04-25T13:54:51;5.63;;;3.03;;
13331;SDS011;6735;51.456;12.626;2023-04-25T13:57:17;8.07;;;2.93;;
13331;SDS011;6735;51.456;12.626;2023-04-25T13:59:42;7.20;;;3.17;;
13331;SDS011;6735;51.456;12.626;2023-04-25T14:02:08;8.77;;;2.90;;
13331;SDS011;6735;51.456;12.626;2023-04-25T14:04:34;4.83;;;2.63;;
13331;SDS011;6735;51.456;12.626;2023-04-25T14:06:59;5.63;;;3.10;;
13331;SDS011;6735;51.456;12.626;2023-04-25T14:09:25;7.13;;;3.17;;
13331;SDS011;6735;51.456;12.626;2023-04-25T14:11:52;5.03;;;2.87;;
13331;SDS011;6735;51.456;12.626;2023-04-25T14:14:18;3.50;;;2.80;;
13331;SDS011;6735;51.456;12.626;2023-04-25T14:16:44;6.17;;;2.80;;
13331;SDS011;6735;51.456;12.626;2023-04-25T14:19:12;4.83;;;2.60;;
13331;SDS011;6735;51.456;12.626;2023-04-25T14:21:38;7.70;;;2.87;;
13331;SDS011;6735;51.456;12.626;2023-04-25T14:24:04;4.30;;;3.03;;
13331;SDS011;6735;51.456;12.626;2023-04-25T14:26:30;8.43;;;3.50;;
13331;SDS011;6735;51.456;12.626;2023-04-25T14:28:55;7.40;;;2.77;;
13331;SDS011;6735;51.456;12.626;2023-04-25T14:31:21;6.23;;;2.80;;
13331;SDS011;6735;51.456;12.626;2023-04-25T14:33:47;8.03;;;2.90;;
13331;SDS011;6735;51.456;12.626;2023-04-25T14:36:12;4.97;;;3.03;;
13331;SDS011;6735;51.456;12.626;2023-04-25T14:38:39;6.33;;;3.10;;
13331;SDS011;6735;51.456;12.626;2023-04-25T14:41:04;6.53;;;2.93;;
13331;SDS011;6735;51.456;12.626;2023-04-25T14:43:30;3.53;;;2.70;;
13331;SDS011;6735;51.456;12.626;2023-04-25T14:45:56;5.27;;;2.63;;
13331;SDS011;6735;51.456;12.626;2023-04-25T14:48:21;4.60;;;2.77;;
13331;SDS011;6735;51.456;12.626;2023-04-25T14:50:47;7.23;;;3.13;;
13331;SDS011;6735;51.456;12.626;2023-04-25T14:53:13;5.40;;;2.80;;
13331;SDS011;6735;51.456;12.626;2023-04-25T14:55:40;5.43;;;2.93;;